createdAt,value
2023-01-29T00:02:46.679Z,87.51
2023-01-29T00:05:49.753Z,88.31
2023-01-29T00:08:52.698Z,88.59
2023-01-29T00:11:55.573Z,88.72
2023-01-29T00:14:58.566Z,89.14
2023-01-29T00:18:01.482Z,89.51
2023-01-29T00:21:04.494Z,89.52
2023-01-29T00:24:07.582Z,89.63
2023-01-29T00:27:11.212Z,89.66
2023-01-29T00:30:16.532Z,89.83
2023-01-29T00:33:19.516Z,89.73
2023-01-29T00:36:23.396Z,90.01
2023-01-29T00:39:31.380Z,90.37
2023-01-29T00:42:58.041Z,90.47
2023-01-29T00:46:01.155Z,90.44
2023-01-29T00:49:06.072Z,90.61
2023-01-29T00:52:24.259Z,90.75
2023-01-29T00:55:27.345Z,90.67
2023-01-29T00:58:34.293Z,90.44
2023-01-29T01:01:55.718Z,90.56
2023-01-29T01:04:59.075Z,90.65
2023-01-29T01:08:02.154Z,91.06
2023-01-29T01:11:06.938Z,90.83
2023-01-29T01:14:09.834Z,90.72
2023-01-29T01:17:12.809Z,90.71
2023-01-29T01:20:16.182Z,90.71
2023-01-29T01:23:20.257Z,90.73
2023-01-29T01:26:23.346Z,90.75
2023-01-29T01:29:26.257Z,90.75
2023-01-29T01:32:29.216Z,90.87
2023-01-29T01:35:32.110Z,90.94
2023-01-29T01:38:36.490Z,90.87
2023-01-29T01:41:39.419Z,90.59
2023-01-29T01:44:58.812Z,90.43
2023-01-29T01:48:09.143Z,90.53
2023-01-29T01:51:12.448Z,90.48
2023-01-29T01:54:21.366Z,90.37
2023-01-29T01:57:26.439Z,90.26
2023-01-29T02:00:29.467Z,90.23
2023-01-29T02:03:56.407Z,90.11
2023-01-29T02:07:21.612Z,89.78
2023-01-29T02:10:24.762Z,89.07
2023-01-29T02:13:27.694Z,88.77
2023-01-29T02:16:30.911Z,88.24
2023-01-29T02:19:52.698Z,87.78
2023-01-29T02:22:56.325Z,86.90
2023-01-29T02:26:20.720Z,86.74
2023-01-29T02:29:28.937Z,86.72
2023-01-29T02:32:54.455Z,86.63
2023-01-29T02:36:13.334Z,86.74
2023-01-29T02:39:34.219Z,86.71
2023-01-29T02:43:02.313Z,86.65
2023-01-29T02:46:17.704Z,86.59
2023-01-29T02:49:47.355Z,86.71
2023-01-29T02:53:06.491Z,86.19
2023-01-29T02:56:37.142Z,85.24
2023-01-29T02:59:46.329Z,84.93
2023-01-29T03:02:59.435Z,84.79
2023-01-29T03:06:07.716Z,83.89
2023-01-29T03:09:24.682Z,83.06
2023-01-29T03:12:36.929Z,82.77
2023-01-29T03:15:47.483Z,82.50
2023-01-29T03:18:57.089Z,82.87
2023-01-29T03:22:04.334Z,81.58
2023-01-29T03:25:28.839Z,80.48
2023-01-29T03:28:51.935Z,79.62
2023-01-29T03:32:08.546Z,79.16
2023-01-29T03:35:21.102Z,78.67
2023-01-29T03:38:29.698Z,77.75
2023-01-29T03:41:38.080Z,77.53
2023-01-29T03:45:12.410Z,77.70
2023-01-29T03:48:40.189Z,77.39
2023-01-29T03:51:55.823Z,77.21
2023-01-29T03:55:20.542Z,76.10
2023-01-29T03:58:29.789Z,75.48
2023-01-29T04:01:41.965Z,76.39
2023-01-29T04:04:50.278Z,75.83
2023-01-29T04:08:00.887Z,75.34
2023-01-29T04:11:12.084Z,75.80
2023-01-29T04:14:15.559Z,75.95
2023-01-29T04:17:23.786Z,76.37
2023-01-29T04:20:27.091Z,76.85
2023-01-29T04:23:29.927Z,77.14
2023-01-29T04:26:58.176Z,77.71
2023-01-29T04:30:05.493Z,75.06
2023-01-29T04:33:21.911Z,74.74
2023-01-29T04:36:49.435Z,73.78
2023-01-29T04:40:04.415Z,74.85
2023-01-29T04:43:14.435Z,74.60
2023-01-29T04:46:23.493Z,74.43
2023-01-29T04:49:38.576Z,73.97
2023-01-29T04:53:04.518Z,74.06
2023-01-29T04:56:21.726Z,73.95
2023-01-29T04:59:36.215Z,75.12
2023-01-29T05:02:41.717Z,75.22
2023-01-29T05:05:48.214Z,75.71
2023-01-29T05:08:51.774Z,75.99
2023-01-29T05:11:56.015Z,75.95
2023-01-29T05:15:02.163Z,76.28
2023-01-29T05:18:09.232Z,76.12
2023-01-29T05:21:12.320Z,76.43
2023-01-29T05:24:21.895Z,76.78
2023-01-29T05:27:53.275Z,76.90
2023-01-29T05:30:57.438Z,76.79
2023-01-29T05:34:00.404Z,76.21
2023-01-29T05:37:03.326Z,76.35
2023-01-29T05:40:08.895Z,75.82
2023-01-29T05:43:23.910Z,75.31
2023-01-29T05:46:26.829Z,75.72
2023-01-29T05:49:29.737Z,75.70
2023-01-29T05:52:32.761Z,75.28
2023-01-29T05:55:35.732Z,74.31
2023-01-29T05:58:38.801Z,73.71
2023-01-29T06:01:41.940Z,73.63
2023-01-29T06:04:44.872Z,73.81
2023-01-29T06:07:47.839Z,74.68
2023-01-29T06:10:50.708Z,75.14
2023-01-29T06:13:53.933Z,75.76
2023-01-29T06:16:56.809Z,75.98
2023-01-29T06:19:59.703Z,75.69
2023-01-29T06:23:02.829Z,75.50
2023-01-29T06:26:08.094Z,74.35
2023-01-29T06:29:10.998Z,74.56
2023-01-29T06:32:14.041Z,74.46
2023-01-29T06:35:16.985Z,75.00
2023-01-29T06:38:19.927Z,75.46
2023-01-29T06:41:25.584Z,74.49
2023-01-29T06:44:28.915Z,75.01
2023-01-29T06:47:31.961Z,75.59
2023-01-29T06:50:34.905Z,73.76
2023-01-29T06:53:38.979Z,73.41
2023-01-29T06:56:41.912Z,74.59
2023-01-29T06:59:44.887Z,74.89
2023-01-29T07:02:51.044Z,74.15
2023-01-29T07:05:53.947Z,72.24
2023-01-29T07:08:56.988Z,70.44
2023-01-29T07:11:59.831Z,71.57
2023-01-29T07:15:02.877Z,72.67
2023-01-29T07:18:12.254Z,73.60
2023-01-29T07:21:15.396Z,73.99
2023-01-29T07:24:19.260Z,74.68
2023-01-29T07:27:22.197Z,73.92
2023-01-29T07:30:25.123Z,73.95
2023-01-29T07:33:28.037Z,74.58
2023-01-29T07:36:31.046Z,75.00
2023-01-29T07:39:34.020Z,75.26
2023-01-29T07:42:42.276Z,74.99
2023-01-29T07:45:45.276Z,74.64
2023-01-29T07:48:48.194Z,74.82
2023-01-29T07:51:51.082Z,74.66
2023-01-29T07:54:54.201Z,73.89
2023-01-29T07:58:02.301Z,73.03
2023-01-29T08:01:07.778Z,73.35
2023-01-29T08:04:10.911Z,73.86
2023-01-29T08:07:14.077Z,74.18
2023-01-29T08:10:17.573Z,74.76
2023-01-29T08:13:20.827Z,75.45
2023-01-29T08:16:23.839Z,75.45
2023-01-29T08:19:26.722Z,74.94
2023-01-29T08:22:29.586Z,75.05
2023-01-29T08:25:33.308Z,75.17
2023-01-29T08:28:38.716Z,74.64
2023-01-29T08:31:41.708Z,74.45
2023-01-29T08:34:44.660Z,74.91
2023-01-29T08:37:59.535Z,74.48
2023-01-29T08:41:02.585Z,73.59
2023-01-29T08:44:05.715Z,73.87
2023-01-29T08:47:08.612Z,73.22
2023-01-29T08:50:11.839Z,74.03
2023-01-29T08:53:14.716Z,72.71
2023-01-29T08:56:17.671Z,71.77
2023-01-29T08:59:22.965Z,69.07
2023-01-29T09:02:25.901Z,69.92
2023-01-29T09:05:29.267Z,69.07
2023-01-29T09:08:32.099Z,70.16
2023-01-29T09:11:34.926Z,71.66
2023-01-29T09:14:37.778Z,67.14
2023-01-29T09:17:41.221Z,67.42
2023-01-29T09:20:44.083Z,68.47
2023-01-29T09:23:46.982Z,71.07
2023-01-29T09:26:49.966Z,72.21
2023-01-29T09:29:52.870Z,72.00
2023-01-29T09:32:55.766Z,72.66
2023-01-29T09:35:58.634Z,71.56
2023-01-29T09:39:01.504Z,71.43
2023-01-29T09:42:20.976Z,71.56
2023-01-29T09:45:26.772Z,71.42
2023-01-29T09:48:33.680Z,71.27
2023-01-29T09:51:48.018Z,70.30
2023-01-29T09:55:00.238Z,71.16
2023-01-29T09:58:12.189Z,70.26
2023-01-29T10:01:40.818Z,70.93
2023-01-29T10:05:11.037Z,70.58
2023-01-29T10:08:29.069Z,70.79
2023-01-29T10:11:58.101Z,69.74
2023-01-29T10:15:25.189Z,65.67
2023-01-29T10:18:49.147Z,66.05
2023-01-29T10:22:29.592Z,65.64
2023-01-29T10:25:36.877Z,64.16
2023-01-29T10:28:47.711Z,63.69
2023-01-29T10:31:57.022Z,62.76
2023-01-29T10:35:22.092Z,68.68
2023-01-29T10:38:38.531Z,67.52
2023-01-29T10:41:47.584Z,67.59
2023-01-29T10:45:00.794Z,66.06
2023-01-29T10:48:44.245Z,67.35
2023-01-29T10:52:05.600Z,63.67
2023-01-29T10:55:27.522Z,64.95
2023-01-29T10:58:34.342Z,63.18
2023-01-29T11:01:37.347Z,62.55
2023-01-29T11:04:40.433Z,62.31
2023-01-29T11:07:43.795Z,61.56
2023-01-29T11:10:55.219Z,65.65
2023-01-29T11:14:07.168Z,65.99
2023-01-29T11:17:22.984Z,66.40
2023-01-29T11:20:28.088Z,65.41
2023-01-29T11:23:33.339Z,67.02
2023-01-29T11:26:40.735Z,65.32
2023-01-29T11:29:46.285Z,63.57
2023-01-29T11:32:56.912Z,66.15
2023-01-29T11:36:01.067Z,64.66
2023-01-29T11:39:20.776Z,63.98
2023-01-29T11:42:24.018Z,65.97
2023-01-29T11:45:32.359Z,65.45
2023-01-29T11:48:50.339Z,62.15
2023-01-29T11:51:56.291Z,63.90
2023-01-29T11:55:03.841Z,61.76
2023-01-29T11:58:12.628Z,60.65
2023-01-29T12:01:19.242Z,59.82
2023-01-29T12:04:26.245Z,62.92
2023-01-29T12:07:30.642Z,64.04
2023-01-29T12:10:39.114Z,64.26
2023-01-29T12:13:45.723Z,61.55
2023-01-29T12:16:54.576Z,55.25
2023-01-29T12:20:06.842Z,59.54
2023-01-29T12:23:42.109Z,62.23
2023-01-29T12:26:52.036Z,62.70
2023-01-29T12:30:17.859Z,61.63
2023-01-29T12:33:20.838Z,62.49
2023-01-29T12:36:47.227Z,61.00
2023-01-29T12:39:52.171Z,60.62
2023-01-29T12:43:02.808Z,60.14
2023-01-29T12:46:14.436Z,61.74
2023-01-29T12:49:33.313Z,60.02
2023-01-29T12:52:47.686Z,61.25
2023-01-29T12:56:00.105Z,61.75
2023-01-29T12:59:09.871Z,62.65
2023-01-29T13:02:27.334Z,62.23
2023-01-29T13:05:36.305Z,59.59
2023-01-29T13:08:45.341Z,60.05
2023-01-29T13:12:00.744Z,60.95
2023-01-29T13:15:29.393Z,61.94
2023-01-29T13:18:54.113Z,62.03
2023-01-29T13:22:01.304Z,63.49
2023-01-29T13:25:05.772Z,62.25
2023-01-29T13:28:18.909Z,63.41
2023-01-29T13:31:31.853Z,63.20
2023-01-29T13:34:43.637Z,61.99
2023-01-29T13:37:53.947Z,63.17
2023-01-29T13:41:03.223Z,63.41
2023-01-29T13:44:09.642Z,63.21
2023-01-29T13:47:22.402Z,63.63
2023-01-29T13:50:35.037Z,63.63
2023-01-29T13:53:40.381Z,63.67
2023-01-29T13:56:49.994Z,63.51
2023-01-29T13:59:55.427Z,62.95
2023-01-29T14:03:13.459Z,63.94
2023-01-29T14:06:41.940Z,64.02
2023-01-29T14:09:44.784Z,64.27
2023-01-29T14:12:49.949Z,64.34
2023-01-29T14:15:58.834Z,64.44
2023-01-29T14:19:04.360Z,64.64
2023-01-29T14:22:07.344Z,64.87
2023-01-29T14:25:19.518Z,65.00
2023-01-29T14:28:52.524Z,65.02
2023-01-29T14:32:00.939Z,65.22
2023-01-29T14:35:18.160Z,65.35
2023-01-29T14:38:24.992Z,65.48
2023-01-29T14:41:34.240Z,65.63
2023-01-29T14:44:47.170Z,65.69
2023-01-29T14:47:50.029Z,65.91
2023-01-29T14:50:59.275Z,66.09
2023-01-29T14:54:12.124Z,66.24
2023-01-29T14:57:18.204Z,66.42
2023-01-29T15:00:29.372Z,66.61
2023-01-29T15:03:52.638Z,66.72
2023-01-29T15:07:11.421Z,66.90
2023-01-29T15:10:23.475Z,67.03
2023-01-29T15:13:53.988Z,67.33
2023-01-29T15:17:09.610Z,67.55
2023-01-29T15:20:41.656Z,67.70
2023-01-29T15:23:46.022Z,67.89
2023-01-29T15:26:49.095Z,68.08
2023-01-29T15:30:02.368Z,68.15
2023-01-29T15:33:10.605Z,68.51
2023-01-29T15:36:30.802Z,68.76
2023-01-29T15:39:43.851Z,68.78
2023-01-29T15:42:48.836Z,69.08
2023-01-29T15:45:53.922Z,69.47
2023-01-29T15:48:59.892Z,69.55
2023-01-29T15:52:07.224Z,69.90
2023-01-29T15:55:23.462Z,70.22
2023-01-29T15:58:32.419Z,70.69
2023-01-29T16:01:35.655Z,70.72
2023-01-29T16:04:38.813Z,71.28
2023-01-29T16:07:42.712Z,71.07
2023-01-29T16:10:53.865Z,71.17
2023-01-29T16:13:57.643Z,72.30
2023-01-29T16:17:27.712Z,73.02
2023-01-29T16:20:45.239Z,73.37
2023-01-29T16:23:56.996Z,73.49
2023-01-29T16:27:06.515Z,73.78
2023-01-29T16:30:14.689Z,75.54
2023-01-29T16:33:18.011Z,76.56
2023-01-29T16:36:24.746Z,81.01
2023-01-29T16:39:34.999Z,80.62
2023-01-29T16:42:38.660Z,74.48
2023-01-29T16:45:41.716Z,73.20
2023-01-29T16:48:44.803Z,73.13
2023-01-29T16:51:47.860Z,72.88
2023-01-29T16:54:58.601Z,72.71
2023-01-29T16:58:13.211Z,72.69
2023-01-29T17:01:17.370Z,72.97
2023-01-29T17:04:21.221Z,71.51
2023-01-29T17:07:25.770Z,69.90
2023-01-29T17:10:31.194Z,72.01
2023-01-29T17:13:45.499Z,72.16
2023-01-29T17:17:15.715Z,74.84
2023-01-29T17:20:18.880Z,73.42
2023-01-29T17:23:22.769Z,75.75
2023-01-29T17:26:26.067Z,76.03
2023-01-29T17:29:31.555Z,75.40
2023-01-29T17:32:44.128Z,75.06
2023-01-29T17:35:51.722Z,75.44
2023-01-29T17:38:55.082Z,77.06
2023-01-29T17:41:59.299Z,75.65
2023-01-29T17:45:02.370Z,72.73
2023-01-29T17:48:11.883Z,73.31
2023-01-29T17:51:17.478Z,72.41
2023-01-29T17:54:21.791Z,72.47
2023-01-29T17:57:25.805Z,73.54
2023-01-29T18:00:30.116Z,75.54
2023-01-29T18:03:33.351Z,74.93
2023-01-29T18:06:37.208Z,74.25
2023-01-29T18:09:43.277Z,73.22
2023-01-29T18:12:46.953Z,73.03
2023-01-29T18:15:50.901Z,73.77
2023-01-29T18:18:54.049Z,74.17
2023-01-29T18:21:57.301Z,74.65
2023-01-29T18:25:00.243Z,74.84
2023-01-29T18:28:05.518Z,75.24
2023-01-29T18:31:09.789Z,75.46
2023-01-29T18:34:13.557Z,75.56
2023-01-29T18:37:17.108Z,75.48
2023-01-29T18:40:20.517Z,75.36
2023-01-29T18:43:26.234Z,75.66
2023-01-29T18:46:30.904Z,75.85
2023-01-29T18:49:34.343Z,75.81
2023-01-29T18:52:37.834Z,75.78
2023-01-29T18:55:42.404Z,75.74
2023-01-29T18:58:52.143Z,75.76
2023-01-29T19:01:58.561Z,76.00
2023-01-29T19:05:02.184Z,75.78
2023-01-29T19:08:05.966Z,75.93
2023-01-29T19:11:12.529Z,75.75
2023-01-29T19:14:15.965Z,75.72
2023-01-29T19:17:19.031Z,75.91
2023-01-29T19:20:22.557Z,75.92
2023-01-29T19:23:25.725Z,75.88
2023-01-29T19:26:29.095Z,75.96
2023-01-29T19:29:32.995Z,75.96
2023-01-29T19:32:36.065Z,76.10
2023-01-29T19:35:39.165Z,76.13
2023-01-29T19:38:42.433Z,76.24
2023-01-29T19:41:45.373Z,76.34
2023-01-29T19:44:49.152Z,76.29
2023-01-29T19:47:54.430Z,76.27
2023-01-29T19:51:10.522Z,76.40
2023-01-29T19:54:13.560Z,76.56
2023-01-29T19:57:16.443Z,76.86
2023-01-29T20:00:21.694Z,77.12
2023-01-29T20:03:25.856Z,77.27
2023-01-29T20:06:32.827Z,77.12
2023-01-29T20:09:35.797Z,77.06
2023-01-29T20:12:38.795Z,77.08
2023-01-29T20:15:49.778Z,77.14
2023-01-29T20:18:53.146Z,77.15
2023-01-29T20:21:56.340Z,77.24
2023-01-29T20:24:59.753Z,77.28
2023-01-29T20:28:03.404Z,77.28
2023-01-29T20:31:08.086Z,77.31
2023-01-29T20:34:11.377Z,77.29
2023-01-29T20:37:14.389Z,77.09
2023-01-29T20:40:18.657Z,76.98
2023-01-29T20:43:22.225Z,76.94
2023-01-29T20:46:27.483Z,76.99
2023-01-29T20:49:30.535Z,77.63
2023-01-29T20:52:33.839Z,77.68
2023-01-29T20:55:37.315Z,78.11
2023-01-29T20:58:43.946Z,77.77
2023-01-29T21:01:47.152Z,77.62
2023-01-29T21:04:50.180Z,77.73
2023-01-29T21:07:53.056Z,78.23
2023-01-29T21:10:56.271Z,78.22
2023-01-29T21:13:59.357Z,77.86
2023-01-29T21:17:02.899Z,77.75
2023-01-29T21:20:08.401Z,78.16
2023-01-29T21:23:11.920Z,77.75
2023-01-29T21:26:14.863Z,77.57
2023-01-29T21:29:17.942Z,77.37
2023-01-29T21:32:21.082Z,77.25
2023-01-29T21:35:23.974Z,77.21
2023-01-29T21:38:27.638Z,77.56
2023-01-29T21:41:50.859Z,77.38
2023-01-29T21:44:53.805Z,77.31
2023-01-29T21:47:56.821Z,77.35
2023-01-29T21:50:59.914Z,77.30
2023-01-29T21:54:03.595Z,77.41
2023-01-29T21:57:11.169Z,77.36
2023-01-29T22:00:14.578Z,77.33
2023-01-29T22:03:17.702Z,77.43
2023-01-29T22:06:20.958Z,77.50
2023-01-29T22:09:24.017Z,77.52
2023-01-29T22:12:27.568Z,77.45
2023-01-29T22:15:30.504Z,77.48
2023-01-29T22:18:34.120Z,77.52
2023-01-29T22:21:37.093Z,77.49
2023-01-29T22:24:40.142Z,77.44
2023-01-29T22:27:42.968Z,77.41
2023-01-29T22:30:46.471Z,77.39
2023-01-29T22:33:49.465Z,77.33
2023-01-29T22:36:52.896Z,77.32
2023-01-29T22:39:55.778Z,77.37
2023-01-29T22:42:58.830Z,77.34
2023-01-29T22:46:02.053Z,77.33
2023-01-29T22:49:05.242Z,77.25
2023-01-29T22:52:11.420Z,77.20
2023-01-29T22:55:14.273Z,77.12
2023-01-29T22:58:17.496Z,77.09
2023-01-29T23:01:22.097Z,77.03
2023-01-29T23:04:25.177Z,77.44
2023-01-29T23:07:28.087Z,77.54
2023-01-29T23:10:30.984Z,77.41
2023-01-29T23:13:34.035Z,77.23
2023-01-29T23:16:36.908Z,77.18
2023-01-29T23:19:39.792Z,77.18
2023-01-29T23:22:42.828Z,77.18
2023-01-29T23:26:04.424Z,77.29
2023-01-29T23:29:07.419Z,77.46
2023-01-29T23:32:11.812Z,77.64
2023-01-29T23:35:14.623Z,77.57
2023-01-29T23:38:17.537Z,77.57
2023-01-29T23:41:21.402Z,77.48
2023-01-29T23:44:24.380Z,77.60
2023-01-29T23:47:27.319Z,77.62
2023-01-29T23:50:30.122Z,77.82
2023-01-29T23:53:33.036Z,77.89
2023-01-29T23:56:35.893Z,78.08
2023-01-29T23:59:38.904Z,78.16
